»·PEaware :: N9915H KCRQ-KWHP

N9915H :: KCRQ-KWHP

FLIGHT INFORMATION

Flight Status: Arrived
Operator: Privately registered:
United States
More flights under this callsign
Pilot: Charlton B. (28558)
Aircraft: BEECH AIRCRAFT BONANZA
(BE36)
More flights by this aircraft type
Origin: KCRQ McClellan-Palomar
United States
Destination: KWHP Whiteman
United States
More flights between these airports :: More routes between these airports
Route: +
File this flight plan on PilotEdge
Remarks:
Altitude:
(Current/Filed)
6,500ft
Speed:
(Current/Filed)
0kts
Departed: 27-Jul-20 03:33 PM
Arrived: 27-Jul-20 04:16 PM
Distance/Time
Traveled:
88nm/0:43
Distance/Time
To Go:
Arrived

Flight Plot

Page will automatically refresh every two minutes.

Flight plan parsing failed; only flown route is shown


Map Options




Map Legend


Flown Route
Filed Route
Departure Airport
Arrival Airport
Navaid (VOR, NDB)
Fix

Horizontal Profiles

Position Reports

Time Latitude Longitude Heading Altitude Ground
Speed
27-Jul-20 15:27 33.127599 -117.275711 18 335ft 0kts
27-Jul-20 15:28 33.128477 -117.272842 112 335ft 10kts
27-Jul-20 15:29 33.128695 -117.272340 350 334ft 0kts
27-Jul-20 15:30 33.128695 -117.272340 350 334ft 0kts
27-Jul-20 15:31 33.129386 -117.272750 293 335ft 11kts
27-Jul-20 15:32 33.127166 -117.289861 265 728ft 96kts
27-Jul-20 15:33 33.127061 -117.322214 263 2125ft 104kts
27-Jul-20 15:34 33.137000 -117.355223 297 3425ft 112kts
27-Jul-20 15:35 33.156100 -117.384029 312 4701ft 108kts
27-Jul-20 15:36 33.177575 -117.408006 315 5795ft 109kts
27-Jul-20 15:37 33.200433 -117.435962 309 6491ft 138kts
27-Jul-20 15:38 33.229225 -117.476982 307 6483ft 175kts
27-Jul-20 15:39 33.260612 -117.523997 307 6478ft 184kts
27-Jul-20 15:40 33.292462 -117.572181 307 6476ft 185kts
27-Jul-20 15:41 33.324444 -117.620676 307 6493ft 185kts
27-Jul-20 15:42 33.356284 -117.669037 306 6499ft 185kts
27-Jul-20 15:43 33.388185 -117.717552 306 6503ft 185kts
27-Jul-20 15:44 33.420054 -117.766083 306 6507ft 185kts
27-Jul-20 15:45 33.452015 -117.814815 306 6511ft 185kts
27-Jul-20 15:46 33.483797 -117.863336 307 6513ft 185kts
27-Jul-20 15:47 33.515597 -117.911951 306 6513ft 185kts
27-Jul-20 15:48 33.547468 -117.960745 306 6513ft 185kts
27-Jul-20 15:49 33.579367 -118.009630 306 6513ft 185kts
27-Jul-20 15:50 33.611135 -118.058409 307 6513ft 186kts
27-Jul-20 15:51 33.643060 -118.107456 306 6513ft 186kts
27-Jul-20 15:52 33.674980 -118.156562 306 6514ft 187kts
27-Jul-20 15:53 33.706906 -118.205759 306 6514ft 187kts
27-Jul-20 15:54 33.738881 -118.255103 305 6514ft 187kts
27-Jul-20 15:55 33.778237 -118.296463 321 6515ft 189kts
27-Jul-20 15:56 33.820808 -118.333852 322 6517ft 189kts
27-Jul-20 15:57 33.863458 -118.371022 322 6521ft 188kts
27-Jul-20 15:58 33.905871 -118.408022 322 6518ft 188kts
27-Jul-20 15:59 33.950318 -118.441427 334 6518ft 188kts
27-Jul-20 16:00 33.997890 -118.467920 335 6517ft 189kts
27-Jul-20 16:01 34.045674 -118.494556 335 6517ft 188kts
27-Jul-20 16:02 34.093110 -118.521038 335 6517ft 188kts
27-Jul-20 16:03 34.138355 -118.546591 335 5596ft 161kts
27-Jul-20 16:04 34.176778 -118.567973 335 4031ft 150kts
27-Jul-20 16:05 34.215087 -118.589359 335 3996ft 151kts
27-Jul-20 16:06 34.225162 -118.631721 259 3997ft 136kts
27-Jul-20 16:07 34.203635 -118.646174 120 4001ft 124kts
27-Jul-20 16:08 34.217613 -118.608388 57 3998ft 131kts
27-Jul-20 16:09 34.224016 -118.569272 95 3728ft 112kts
27-Jul-20 16:10 34.223633 -118.532827 84 3310ft 107kts
27-Jul-20 16:11 34.223960 -118.500231 94 3180ft 82kts
27-Jul-20 16:12 34.238027 -118.470566 52 2690ft 122kts
27-Jul-20 16:13 34.265710 -118.442358 43 2049ft 126kts
27-Jul-20 16:14 34.262593 -118.416893 140 1006ft 78kts
27-Jul-20 16:15 34.258008 -118.411484 344 983ft 0kts
27-Jul-20 16:16 34.258015 -118.411488 334 983ft 0kts
27-Jul-20 16:17 34.258102 -118.411557 320 983ft 8kts

Navigation Log

Ident Type
Flight plan parsing failed, navigation log unavailable